Date,TemperatureHighF,TemperatureAvgF,TemperatureLowF,DewpointHighF,DewpointAvgF,DewpointLowF,HumidityHigh,HumidityAvg,HumidityLow,PressureMaxIn,PressureMinIn,WindSpeedMaxMPH,WindSpeedAvgMPH,GustSpeedMaxMPH,PrecipitationSumIn
2013-1-1,65,39,31,39,30,14,89,70,37,29.80,29.65,14,4,14,0.00
2013-1-2,49,35,28,35,27,22,81,72,56,29.68,29.50,14,4,14,0.00
2013-1-3,59,40,30,35,29,20,75,63,38,29.68,29.47,14,3,14,0.00
2013-1-4,67,46,36,44,36,31,85,69,40,29.68,29.50,10,2,10,0.00
2013-1-5,45,40,37,39,36,32,90,84,79,29.56,29.47,18,3,18,0.00
2013-1-6,62,45,39,46,39,36,94,79,48,29.62,29.47,10,2,10,0.00
2013-1-7,48,45,42,48,44,39,98,95,87,29.62,29.47,7,1,7,0.53
2013-1-8,49,47,45,48,46,44,98,98,96,29.62,29.32,13,3,13,0.05
2013-1-9,45,41,35,44,40,34,98,95,91,29.35,29.15,15,3,15,0.58
2013-1-10,38,36,35,37,35,34,98,97,94,29.50,29.35,12,3,12,0.46
2013-1-11,55,38,32,42,33,28,98,85,41,29.68,29.47,10,2,10,0.08
2013-1-12,52,34,26,34,26,21,98,73,41,29.74,29.62,10,2,10,0.00
2013-1-13,49,32,23,30,23,17,81,70,44,29.83,29.71,12,2,12,0.00
2013-1-14,54,35,25,33,25,19,81,68,37,29.91,29.80,9,2,9,0.00
2013-1-15,58,38,28,37,28,22,86,69,42,29.97,29.88,9,2,9,0.00
2013-1-16,61,40,32,41,31,27,88,72,47,30.00,29.83,12,2,12,0.00
2013-1-17,59,39,32,41,31,27,88,75,49,29.83,29.62,13,4,13,0.00
2013-1-18,62,41,33,41,31,26,86,70,42,29.68,29.56,15,5,15,0.00
2013-1-19,60,41,33,40,30,25,80,66,46,29.71,29.59,18,4,18,0.00
2013-1-20,50,36,30,38,28,23,83,73,53,29.71,29.56,14,2,14,0.00
2013-1-21,63,39,28,40,28,22,84,68,39,29.62,29.47,14,2,14,0.00
2013-1-22,68,40,32,38,29,25,79,66,33,29.50,29.24,13,3,13,0.00
2013-1-23,39,37,33,37,33,28,93,86,78,29.53,29.18,11,2,11,0.41
2013-1-24,65,46,36,50,41,34,98,84,53,29.56,29.41,10,1,10,0.21
2013-1-25,50,47,44,50,46,42,98,95,90,29.53,29.29,8,1,8,0.88
2013-1-26,48,43,39,44,40,37,98,91,78,29.47,29.32,14,1,14,0.33
2013-1-27,44,40,35,42,38,33,97,92,87,29.56,29.44,13,1,13,0.50
2013-1-28,42,38,35,42,37,33,98,97,92,29.65,29.47,13,2,13,1.56
2013-1-29,45,43,40,45,42,39,98,98,98,29.91,29.59,10,2,10,1.00
2013-1-30,48,44,41,47,43,40,98,98,98,29.91,29.83,6,1,6,0.21
2013-1-31,64,48,39,50,43,39,98,84,48,29.88,29.71,8,3,8,0.00